createdAt,value
2023-02-23T00:01:54.858Z,15.30
2023-02-23T00:04:23.657Z,16.10
2023-02-23T00:06:54.007Z,16.40
2023-02-23T00:09:35.210Z,15.65
2023-02-23T00:12:08.114Z,17.35
2023-02-23T00:14:37.721Z,15.82
2023-02-23T00:17:04.976Z,16.30
2023-02-23T00:19:33.558Z,15.30
2023-02-23T00:22:01.277Z,16.55
2023-02-23T00:24:28.566Z,16.05
2023-02-23T00:26:55.344Z,16.67
2023-02-23T00:29:24.803Z,16.50
2023-02-23T00:31:52.352Z,16.98
2023-02-23T00:34:21.293Z,16.38
2023-02-23T00:36:51.593Z,15.68
2023-02-23T00:39:29.348Z,16.50
2023-02-23T00:41:56.965Z,16.15
2023-02-23T00:44:24.818Z,16.45
2023-02-23T00:46:53.004Z,16.35
2023-02-23T00:49:22.044Z,17.67
2023-02-23T00:51:48.850Z,16.60
2023-02-23T00:54:17.028Z,19.40
2023-02-23T00:56:44.153Z,16.20
2023-02-23T00:59:12.133Z,17.10
2023-02-23T01:01:41.763Z,17.40
2023-02-23T01:04:09.857Z,16.63
2023-02-23T01:06:37.813Z,15.88
2023-02-23T01:09:13.556Z,16.55
2023-02-23T01:11:41.578Z,15.15
2023-02-23T01:14:09.948Z,17.50
2023-02-23T01:16:38.928Z,16.85
2023-02-23T01:19:07.082Z,16.25
2023-02-23T01:21:42.103Z,18.60
2023-02-23T01:24:09.610Z,19.90
2023-02-23T01:26:38.970Z,17.00
2023-02-23T01:29:15.063Z,17.20
2023-02-23T01:31:45.861Z,17.25
2023-02-23T01:34:15.243Z,18.17
2023-02-23T01:36:43.687Z,18.35
2023-02-23T01:39:16.716Z,17.38
2023-02-23T01:41:43.884Z,17.95
2023-02-23T01:44:13.395Z,17.90
2023-02-23T01:46:45.690Z,17.83
2023-02-23T01:49:22.828Z,18.42
2023-02-23T01:51:55.723Z,17.98
2023-02-23T01:54:29.061Z,17.58
2023-02-23T01:56:58.790Z,18.40
2023-02-23T01:59:43.356Z,17.23
2023-02-23T02:02:11.465Z,18.02
2023-02-23T02:04:44.711Z,17.35
2023-02-23T02:07:21.381Z,19.13
2023-02-23T02:10:08.511Z,18.75
2023-02-23T02:12:35.524Z,18.52
2023-02-23T02:15:04.947Z,15.73
2023-02-23T02:17:45.155Z,19.58
2023-02-23T02:21:04.963Z,18.63
2023-02-23T02:23:53.464Z,17.70
2023-02-23T02:26:42.103Z,18.55
2023-02-23T02:29:31.335Z,18.67
2023-02-23T02:32:11.199Z,17.90
2023-02-23T02:35:01.349Z,18.45
2023-02-23T02:37:56.717Z,18.15
2023-02-23T02:40:40.972Z,18.30
2023-02-23T02:43:16.053Z,17.88
2023-02-23T02:45:55.951Z,18.90
2023-02-23T02:48:38.635Z,18.85
2023-02-23T02:51:18.860Z,18.15
2023-02-23T02:53:55.130Z,18.52
2023-02-23T02:56:26.505Z,18.88
2023-02-23T02:58:54.162Z,19.70
2023-02-23T03:01:39.777Z,19.23
2023-02-23T03:04:43.766Z,18.45
2023-02-23T03:08:04.015Z,20.02
2023-02-23T03:10:58.170Z,19.73
2023-02-23T03:13:50.884Z,19.98
2023-02-23T03:16:56.194Z,19.08
2023-02-23T03:19:50.335Z,19.70
2023-02-23T03:22:44.512Z,19.52
2023-02-23T03:25:45.270Z,20.42
2023-02-23T03:28:38.244Z,20.83
2023-02-23T03:31:33.390Z,21.85
2023-02-23T03:34:27.785Z,20.80
2023-02-23T03:37:35.934Z,18.63
2023-02-23T03:40:31.527Z,19.65
2023-02-23T03:43:20.551Z,20.23
2023-02-23T03:46:08.332Z,21.02
2023-02-23T03:48:56.152Z,20.00
2023-02-23T03:51:43.981Z,20.15
2023-02-23T03:54:35.982Z,20.15
2023-02-23T03:57:26.716Z,19.83
2023-02-23T04:00:18.785Z,21.27
2023-02-23T04:03:08.428Z,21.02
2023-02-23T04:05:56.802Z,21.30
2023-02-23T04:08:48.303Z,19.85
2023-02-23T04:11:56.443Z,20.13
2023-02-23T04:14:29.491Z,19.23
2023-02-23T04:16:57.257Z,21.77
2023-02-23T04:19:28.792Z,20.35
2023-02-23T04:21:55.656Z,21.05
2023-02-23T04:24:22.442Z,20.60
2023-02-23T04:26:49.801Z,19.48
2023-02-23T04:29:16.900Z,20.15
2023-02-23T04:31:43.807Z,19.80
2023-02-23T04:34:10.673Z,18.88
2023-02-23T04:36:37.589Z,20.17
2023-02-23T04:39:04.415Z,20.27
2023-02-23T04:41:31.211Z,20.77
2023-02-23T04:43:57.967Z,18.88
2023-02-23T04:46:24.854Z,21.00
2023-02-23T04:48:51.618Z,20.38
2023-02-23T04:51:18.763Z,19.58
2023-02-23T04:53:45.729Z,21.08
2023-02-23T04:56:12.540Z,19.33
2023-02-23T04:58:39.350Z,19.40
2023-02-23T05:01:08.163Z,18.35
2023-02-23T05:03:35.514Z,19.40
2023-02-23T05:06:02.426Z,18.33
2023-02-23T05:08:29.222Z,20.73
2023-02-23T05:10:56.012Z,19.85
2023-02-23T05:13:23.432Z,20.27
2023-02-23T05:15:50.551Z,19.25
2023-02-23T05:18:17.431Z,19.67
2023-02-23T05:20:47.628Z,19.90
2023-02-23T05:23:14.518Z,20.10
2023-02-23T05:25:41.325Z,18.48
2023-02-23T05:28:08.530Z,20.77
2023-02-23T05:30:36.537Z,19.30
2023-02-23T05:33:03.471Z,19.92
2023-02-23T05:35:30.320Z,20.08
2023-02-23T05:37:57.178Z,19.42
2023-02-23T05:40:24.006Z,20.67
2023-02-23T05:42:50.856Z,20.35
2023-02-23T05:45:17.826Z,19.95
2023-02-23T05:47:44.628Z,19.50
2023-02-23T05:50:11.948Z,19.83
2023-02-23T05:52:42.024Z,19.00
2023-02-23T05:55:11.692Z,20.35
2023-02-23T06:01:27.714Z,18.70
2023-02-23T06:03:54.645Z,17.50
2023-02-23T06:06:22.387Z,17.52
2023-02-23T06:08:49.864Z,18.73
2023-02-23T06:11:16.807Z,18.77
2023-02-23T06:13:43.775Z,17.70
2023-02-23T06:16:10.743Z,16.95
2023-02-23T06:18:37.570Z,16.90
2023-02-23T06:21:04.497Z,17.08
2023-02-23T06:23:32.435Z,18.13
2023-02-23T06:26:02.413Z,18.00
2023-02-23T06:28:29.576Z,18.67
2023-02-23T06:30:57.158Z,17.10
2023-02-23T06:33:24.369Z,16.23
2023-02-23T06:35:52.595Z,15.95
2023-02-23T06:38:20.519Z,16.90
2023-02-23T06:40:47.699Z,17.50
2023-02-23T06:43:14.552Z,16.35
2023-02-23T06:45:41.759Z,17.20
2023-02-23T06:48:08.781Z,17.63
2023-02-23T06:50:35.619Z,16.35
2023-02-23T06:53:02.567Z,17.63
2023-02-23T06:55:29.407Z,17.58
2023-02-23T06:57:56.243Z,18.77
2023-02-23T07:00:23.323Z,17.05
2023-02-23T07:02:50.135Z,17.05
2023-02-23T07:05:17.254Z,17.38
2023-02-23T07:07:44.055Z,16.08
2023-02-23T07:10:11.587Z,17.30
2023-02-23T07:12:38.383Z,17.25
2023-02-23T07:15:05.772Z,17.92
2023-02-23T07:17:32.557Z,17.90
2023-02-23T07:19:59.389Z,16.92
2023-02-23T07:22:29.425Z,16.30
2023-02-23T07:24:59.214Z,17.50
2023-02-23T07:27:27.626Z,17.83
2023-02-23T07:29:54.545Z,17.63
2023-02-23T07:32:21.444Z,16.90
2023-02-23T07:34:48.446Z,17.88
2023-02-23T07:37:16.482Z,16.75
2023-02-23T07:39:44.082Z,16.02
2023-02-23T07:42:11.012Z,15.90
2023-02-23T07:44:39.623Z,17.13
2023-02-23T07:47:07.275Z,15.82
2023-02-23T07:49:34.565Z,16.40
2023-02-23T07:52:01.472Z,16.35
2023-02-23T07:54:28.464Z,15.85
2023-02-23T07:56:55.240Z,15.73
2023-02-23T07:59:22.166Z,16.75
2023-02-23T08:01:48.942Z,17.13
2023-02-23T08:04:15.749Z,16.17
2023-02-23T08:06:42.585Z,16.73
2023-02-23T08:09:10.704Z,15.88
2023-02-23T08:11:37.665Z,15.43
2023-02-23T08:14:04.495Z,15.77
2023-02-23T08:16:33.065Z,15.63
2023-02-23T08:19:00.853Z,15.85
2023-02-23T08:21:29.597Z,16.02
2023-02-23T08:23:57.879Z,16.95
2023-02-23T08:26:25.631Z,15.90
2023-02-23T08:28:53.789Z,16.40
2023-02-23T08:31:24.526Z,15.50
2023-02-23T08:33:52.587Z,16.75
2023-02-23T08:36:20.764Z,15.60
2023-02-23T08:38:48.071Z,16.52
2023-02-23T08:41:15.203Z,14.98
2023-02-23T08:43:42.208Z,17.27
2023-02-23T08:46:09.414Z,15.73
2023-02-23T08:48:36.309Z,15.90
2023-02-23T08:51:03.211Z,17.83
2023-02-23T08:53:30.769Z,15.55
2023-02-23T08:56:03.046Z,16.10
2023-02-23T08:58:31.196Z,14.95
2023-02-23T09:00:58.648Z,16.02
2023-02-23T09:03:30.190Z,15.35
2023-02-23T09:05:59.052Z,16.48
2023-02-23T09:08:25.949Z,14.38
2023-02-23T09:10:53.814Z,14.93
2023-02-23T09:13:20.662Z,15.00
2023-02-23T09:15:48.072Z,13.65
2023-02-23T09:18:14.990Z,14.30
2023-02-23T09:20:43.284Z,14.25
2023-02-23T09:23:10.972Z,14.70
2023-02-23T09:25:45.182Z,15.40
2023-02-23T09:28:15.093Z,14.30
2023-02-23T09:30:43.837Z,14.27
2023-02-23T09:33:11.360Z,13.70
2023-02-23T09:35:38.389Z,13.48
2023-02-23T09:38:07.057Z,13.35
2023-02-23T09:40:49.794Z,13.07
2023-02-23T09:43:23.112Z,12.18
2023-02-23T09:46:10.811Z,12.77
2023-02-23T09:48:37.693Z,12.23
2023-02-23T09:51:08.740Z,11.90
2023-02-23T09:53:49.987Z,13.38
2023-02-23T09:56:33.130Z,11.73
2023-02-23T09:59:01.704Z,11.00
2023-02-23T10:01:46.296Z,12.57
2023-02-23T10:04:20.411Z,11.60
2023-02-23T10:07:42.068Z,10.80
2023-02-23T10:10:31.968Z,10.33
2023-02-23T10:13:25.206Z,10.50
2023-02-23T10:16:19.927Z,11.30
2023-02-23T10:19:07.745Z,10.50
2023-02-23T10:21:39.209Z,10.40
2023-02-23T10:24:14.770Z,9.73
2023-02-23T10:26:54.276Z,10.10
2023-02-23T10:29:41.015Z,10.70
2023-02-23T10:32:41.842Z,9.63
2023-02-23T10:35:14.813Z,10.20
2023-02-23T10:37:41.673Z,9.30
2023-02-23T10:40:18.344Z,10.27
2023-02-23T10:42:45.307Z,9.80
2023-02-23T10:45:23.302Z,9.30
2023-02-23T10:48:05.123Z,9.97
2023-02-23T10:50:33.748Z,9.70
2023-02-23T10:53:16.579Z,9.33
2023-02-23T10:55:45.674Z,8.93
2023-02-23T10:58:18.881Z,10.07
2023-02-23T11:00:56.300Z,10.33
2023-02-23T11:03:32.681Z,9.37
2023-02-23T11:06:00.253Z,9.90
2023-02-23T11:08:38.190Z,10.00
2023-02-23T11:11:17.271Z,9.00
2023-02-23T11:13:49.315Z,10.10
2023-02-23T11:16:37.539Z,10.10
2023-02-23T11:19:07.350Z,11.40
2023-02-23T11:21:38.438Z,9.70
2023-02-23T11:24:13.230Z,9.47
2023-02-23T11:26:43.664Z,9.00
2023-02-23T11:29:27.556Z,8.80
2023-02-23T11:31:58.466Z,9.47
2023-02-23T11:34:32.087Z,9.73
2023-02-23T11:37:01.933Z,9.60
2023-02-23T11:39:28.699Z,9.63
2023-02-23T11:42:19.343Z,9.40
2023-02-23T11:45:02.766Z,8.90
2023-02-23T11:47:30.574Z,9.30
2023-02-23T11:49:58.152Z,9.60
2023-02-23T11:52:27.938Z,9.30
2023-02-23T11:54:58.203Z,9.20
2023-02-23T11:57:36.438Z,9.47
2023-02-23T12:00:11.535Z,8.23
2023-02-23T12:02:52.430Z,9.20
2023-02-23T12:05:30.381Z,9.83
2023-02-23T12:08:10.690Z,8.40
2023-02-23T12:10:42.905Z,8.77
2023-02-23T12:13:24.716Z,7.90
2023-02-23T12:16:03.058Z,9.40
2023-02-23T12:18:44.513Z,7.90
2023-02-23T12:21:38.264Z,7.37
2023-02-23T12:24:28.629Z,7.73
2023-02-23T12:27:01.803Z,7.80
2023-02-23T12:29:37.658Z,8.20
2023-02-23T12:32:20.303Z,6.07
2023-02-23T12:34:53.070Z,4.90
2023-02-23T12:37:29.332Z,5.00
2023-02-23T12:40:14.116Z,5.17
2023-02-23T12:42:51.803Z,4.80
2023-02-23T12:45:55.705Z,5.90
2023-02-23T12:48:25.543Z,5.60
2023-02-23T12:50:55.743Z,5.70
2023-02-23T12:53:35.371Z,5.50
2023-02-23T12:56:23.599Z,5.83
2023-02-23T12:58:56.263Z,5.77
2023-02-23T13:01:36.152Z,6.27
2023-02-23T13:04:51.673Z,6.00
2023-02-23T13:07:39.247Z,5.73
2023-02-23T13:10:18.808Z,5.20
2023-02-23T13:12:57.297Z,5.20
2023-02-23T13:15:55.117Z,4.90
2023-02-23T13:18:35.334Z,4.90
2023-02-23T13:21:29.148Z,5.27
2023-02-23T13:24:07.452Z,4.00
2023-02-23T13:26:50.573Z,4.37
2023-02-23T13:29:41.574Z,4.23
2023-02-23T13:32:32.734Z,3.63
2023-02-23T13:35:01.066Z,3.60
2023-02-23T13:37:34.936Z,3.70
2023-02-23T13:40:19.744Z,3.47
2023-02-23T13:43:01.097Z,3.10
2023-02-23T13:45:59.649Z,3.20
2023-02-23T13:48:56.139Z,3.47
2023-02-23T13:51:41.671Z,3.90
2023-02-23T13:54:16.412Z,2.80
2023-02-23T13:56:59.413Z,2.77
2023-02-23T13:59:29.715Z,2.80
2023-02-23T14:01:57.186Z,2.97
2023-02-23T14:04:34.501Z,3.00
2023-02-23T14:07:11.858Z,3.23
2023-02-23T14:09:47.168Z,3.50
2023-02-23T14:12:25.212Z,3.20
2023-02-23T14:14:52.095Z,3.00
2023-02-23T14:17:19.253Z,3.37
2023-02-23T14:20:13.286Z,3.57
2023-02-23T14:23:21.499Z,3.13
2023-02-23T14:25:52.031Z,3.70
2023-02-23T14:28:31.194Z,3.43
2023-02-23T14:31:05.664Z,3.20
2023-02-23T14:33:48.604Z,3.50
2023-02-23T14:36:24.462Z,3.70
2023-02-23T14:39:01.415Z,3.97
2023-02-23T14:41:36.675Z,3.80
2023-02-23T14:44:12.342Z,4.10
2023-02-23T14:46:54.916Z,3.00
2023-02-23T14:49:23.784Z,3.27
2023-02-23T14:51:55.223Z,3.47
2023-02-23T14:54:25.128Z,4.20
2023-02-23T14:56:58.307Z,4.27
2023-02-23T14:59:28.271Z,3.77
2023-02-23T15:01:59.417Z,4.23
2023-02-23T15:04:30.012Z,3.67
2023-02-23T15:07:00.726Z,4.00
2023-02-23T15:09:42.641Z,4.30
2023-02-23T15:12:16.795Z,4.07
2023-02-23T15:14:44.267Z,4.20
2023-02-23T15:17:16.486Z,4.17
2023-02-23T15:19:44.934Z,4.00
2023-02-23T15:22:41.729Z,3.83
2023-02-23T15:25:21.045Z,4.27
2023-02-23T15:27:48.505Z,4.30
2023-02-23T15:30:22.842Z,4.23
2023-02-23T15:32:59.309Z,4.20
2023-02-23T15:35:26.703Z,5.43
2023-02-23T15:38:05.599Z,4.80
2023-02-23T15:40:41.213Z,4.20
2023-02-23T15:43:11.148Z,4.27
2023-02-23T15:45:46.796Z,4.87
2023-02-23T15:48:18.568Z,4.67
2023-02-23T15:50:50.901Z,5.07
2023-02-23T15:53:29.169Z,4.10
2023-02-23T15:56:03.006Z,5.00
2023-02-23T15:58:47.724Z,4.90
2023-02-23T16:01:30.349Z,4.63
2023-02-23T16:04:09.302Z,4.43
2023-02-23T16:06:41.788Z,4.37
2023-02-23T16:09:13.562Z,4.73
2023-02-23T16:11:40.427Z,4.90
2023-02-23T16:14:16.206Z,4.60
2023-02-23T16:16:46.694Z,5.07
2023-02-23T16:19:15.182Z,4.50
2023-02-23T16:21:42.213Z,4.37
2023-02-23T16:24:22.178Z,4.40
2023-02-23T16:26:57.359Z,4.50
2023-02-23T16:29:31.949Z,4.50
2023-02-23T16:32:04.153Z,4.10
2023-02-23T16:34:36.697Z,4.30
2023-02-23T16:37:15.764Z,5.07
2023-02-23T16:39:42.621Z,4.00
2023-02-23T16:42:23.203Z,4.60
2023-02-23T16:44:50.063Z,4.50
2023-02-23T16:47:22.861Z,5.27
2023-02-23T16:49:50.724Z,4.90
2023-02-23T16:52:22.376Z,5.17
2023-02-23T16:54:54.511Z,5.03
2023-02-23T16:57:26.971Z,5.00
2023-02-23T16:59:55.886Z,4.78
2023-02-23T17:02:22.903Z,5.60
2023-02-23T17:04:51.684Z,5.65
2023-02-23T17:07:21.870Z,5.47
2023-02-23T17:09:50.118Z,5.60
2023-02-23T17:12:21.735Z,6.07
2023-02-23T17:14:49.561Z,5.97
2023-02-23T17:17:18.761Z,5.37
2023-02-23T17:19:46.701Z,5.80
2023-02-23T17:22:13.960Z,5.95
2023-02-23T17:24:42.081Z,6.50
2023-02-23T17:27:09.010Z,6.13
2023-02-23T17:29:35.834Z,5.97
2023-02-23T17:32:02.984Z,6.00
2023-02-23T17:34:30.766Z,5.63
2023-02-23T17:36:57.667Z,6.20
2023-02-23T17:39:28.093Z,5.78
2023-02-23T17:41:55.399Z,5.53
2023-02-23T17:44:22.272Z,5.65
2023-02-23T17:46:49.134Z,6.40
2023-02-23T17:49:15.954Z,6.50
2023-02-23T17:51:42.824Z,7.45
2023-02-23T17:54:09.627Z,7.03
2023-02-23T17:56:36.669Z,7.22
2023-02-23T17:59:03.619Z,7.60
2023-02-23T18:01:30.695Z,7.95
2023-02-23T18:03:58.603Z,7.60
2023-02-23T18:06:26.054Z,8.77
2023-02-23T18:08:52.831Z,8.20
2023-02-23T18:11:19.884Z,8.05
2023-02-23T18:13:48.019Z,9.00
2023-02-23T18:16:16.134Z,8.60
2023-02-23T18:18:45.756Z,9.20
2023-02-23T18:21:20.947Z,7.63
2023-02-23T18:23:48.650Z,8.32
2023-02-23T18:26:21.864Z,8.82
2023-02-23T18:28:51.144Z,8.35
2023-02-23T18:31:21.283Z,8.15
2023-02-23T18:33:56.380Z,9.35
2023-02-23T18:36:32.044Z,10.25
2023-02-23T18:39:00.879Z,9.80
2023-02-23T18:41:30.821Z,10.25
2023-02-23T18:44:02.194Z,9.45
2023-02-23T18:46:29.752Z,9.75
2023-02-23T18:48:56.575Z,8.27
2023-02-23T18:51:23.965Z,9.60
2023-02-23T18:53:52.176Z,11.02
2023-02-23T18:56:23.366Z,11.52
2023-02-23T18:58:51.935Z,9.32
2023-02-23T19:01:22.419Z,10.90
2023-02-23T19:03:52.285Z,10.18
2023-02-23T19:06:21.600Z,11.05
2023-02-23T19:08:54.186Z,10.82
2023-02-23T19:11:32.728Z,10.20
2023-02-23T19:14:03.563Z,10.15
2023-02-23T19:16:32.071Z,10.18
2023-02-23T19:18:59.980Z,11.02
2023-02-23T19:21:26.772Z,10.23
2023-02-23T19:23:57.618Z,10.05
2023-02-23T19:26:25.792Z,10.57
2023-02-23T19:28:52.600Z,9.25
2023-02-23T19:31:21.347Z,10.65
2023-02-23T19:33:49.785Z,9.70
2023-02-23T19:36:19.651Z,10.57
2023-02-23T19:38:46.470Z,10.65
2023-02-23T19:41:16.153Z,10.85
2023-02-23T19:43:43.150Z,10.32
2023-02-23T19:46:12.739Z,10.15
2023-02-23T19:48:39.779Z,11.20
2023-02-23T19:51:11.127Z,12.18
2023-02-23T19:53:38.438Z,11.57
2023-02-23T19:56:08.549Z,12.23
2023-02-23T19:58:35.648Z,12.20
2023-02-23T20:01:07.962Z,11.98
2023-02-23T20:03:35.729Z,14.77
2023-02-23T20:06:05.784Z,13.43
2023-02-23T20:08:33.558Z,12.15
2023-02-23T20:11:00.445Z,12.40
2023-02-23T20:13:27.473Z,12.70
2023-02-23T20:16:20.862Z,13.23
2023-02-23T20:18:48.095Z,12.95
2023-02-23T20:21:21.198Z,13.32
2023-02-23T20:23:48.317Z,13.35
2023-02-23T20:26:18.999Z,13.63
2023-02-23T20:28:46.313Z,13.93
2023-02-23T20:31:25.608Z,13.10
2023-02-23T20:33:54.389Z,13.50
2023-02-23T20:36:22.609Z,14.23
2023-02-23T20:38:49.910Z,14.73
2023-02-23T20:41:17.609Z,13.60
2023-02-23T20:43:44.946Z,14.40
2023-02-23T20:46:14.366Z,14.18
2023-02-23T20:48:42.274Z,13.45
2023-02-23T20:51:12.899Z,13.18
2023-02-23T20:53:41.042Z,14.95
2023-02-23T20:56:09.998Z,13.68
2023-02-23T20:58:36.928Z,15.60
2023-02-23T21:01:06.994Z,15.20
2023-02-23T21:03:35.501Z,14.32
2023-02-23T21:06:02.315Z,15.00
2023-02-23T21:08:30.514Z,13.55
2023-02-23T21:10:57.327Z,13.45
2023-02-23T21:13:26.508Z,14.20
2023-02-23T21:16:01.062Z,13.75
2023-02-23T21:18:28.893Z,13.82
2023-02-23T21:20:56.908Z,13.38
2023-02-23T21:23:25.440Z,14.05
2023-02-23T21:25:54.062Z,13.00
2023-02-23T21:28:21.157Z,13.60
2023-02-23T21:30:48.079Z,13.65
2023-02-23T21:33:15.063Z,14.25
2023-02-23T21:35:41.952Z,13.82
2023-02-23T21:38:10.462Z,14.23
2023-02-23T21:40:42.280Z,13.32
2023-02-23T21:43:09.328Z,14.15
2023-02-23T21:45:39.135Z,14.35
2023-02-23T21:48:05.897Z,13.93
2023-02-23T21:50:32.681Z,13.60
2023-02-23T21:52:59.441Z,12.77
2023-02-23T21:55:26.262Z,13.73
2023-02-23T21:57:53.140Z,13.05
2023-02-23T22:00:21.619Z,13.85
2023-02-23T22:02:49.435Z,14.98
2023-02-23T22:05:18.493Z,13.35
2023-02-23T22:07:54.021Z,12.43
2023-02-23T22:10:23.266Z,12.18
2023-02-23T22:12:55.913Z,13.23
2023-02-23T22:15:27.722Z,13.05
2023-02-23T22:17:55.613Z,13.68
2023-02-23T22:20:22.545Z,12.68
2023-02-23T22:22:52.438Z,13.90
2023-02-23T22:25:20.408Z,12.98
2023-02-23T22:27:47.792Z,12.93
2023-02-23T22:30:15.720Z,12.05
2023-02-23T22:32:43.230Z,12.63
2023-02-23T22:35:10.655Z,12.52
2023-02-23T22:37:38.751Z,12.98
2023-02-23T22:40:16.692Z,11.18
2023-02-23T22:42:49.700Z,11.65
2023-02-23T22:45:18.843Z,11.98
2023-02-23T22:47:45.909Z,11.23
2023-02-23T22:50:17.963Z,12.35
2023-02-23T22:52:46.348Z,11.95
2023-02-23T22:55:13.198Z,11.40
2023-02-23T22:57:40.310Z,12.82
2023-02-23T23:00:10.539Z,12.00
2023-02-23T23:02:37.535Z,11.98
2023-02-23T23:05:06.240Z,11.40
2023-02-23T23:07:33.090Z,10.80
2023-02-23T23:10:05.426Z,11.27
2023-02-23T23:12:34.505Z,11.57
2023-02-23T23:15:04.667Z,12.75
2023-02-23T23:17:32.292Z,11.45
2023-02-23T23:20:00.367Z,11.80
2023-02-23T23:22:28.082Z,11.73
2023-02-23T23:24:57.064Z,11.13
2023-02-23T23:27:24.703Z,11.88
2023-02-23T23:29:51.601Z,10.38
2023-02-23T23:32:19.333Z,10.20
2023-02-23T23:34:49.683Z,11.05
2023-02-23T23:37:19.227Z,10.60
2023-02-23T23:39:46.336Z,11.05
2023-02-23T23:42:13.314Z,10.55
2023-02-23T23:44:40.069Z,10.52
2023-02-23T23:47:07.068Z,10.00
2023-02-23T23:49:39.845Z,9.10
2023-02-23T23:52:07.232Z,7.95
2023-02-23T23:54:39.075Z,8.52
2023-02-23T23:57:06.377Z,8.82
2023-02-23T23:59:34.833Z,10.02
